createdAt,value
2019-02-16T00:00:35.271Z,18.80
2019-02-16T00:03:06.136Z,20.17
2019-02-16T00:05:36.875Z,18.63
2019-02-16T00:08:07.550Z,16.97
2019-02-16T00:10:38.339Z,16.07
2019-02-16T00:13:09.036Z,15.33
2019-02-16T00:15:41.355Z,14.53
2019-02-16T00:18:11.989Z,14.20
2019-02-16T00:20:43.237Z,13.83
2019-02-16T00:23:13.898Z,14.43
2019-02-16T00:25:45.227Z,13.93
2019-02-16T00:28:15.957Z,13.50
2019-02-16T00:30:46.887Z,12.97
2019-02-16T00:33:17.570Z,13.33
2019-02-16T00:35:48.718Z,14.40
2019-02-16T00:38:19.424Z,14.60
2019-02-16T00:40:50.329Z,15.67
2019-02-16T00:43:21.020Z,14.60
2019-02-16T00:45:51.809Z,14.77
2019-02-16T00:48:22.501Z,15.17
2019-02-16T00:50:53.178Z,15.77
2019-02-16T00:53:23.934Z,16.43
2019-02-16T00:55:54.620Z,18.13
2019-02-16T00:58:25.299Z,16.57
2019-02-16T01:00:55.967Z,17.90
2019-02-16T01:03:26.981Z,18.17
2019-02-16T01:05:57.687Z,18.33
2019-02-16T01:08:28.349Z,19.27
2019-02-16T01:10:58.973Z,19.67
2019-02-16T01:13:29.780Z,20.43
2019-02-16T01:16:00.465Z,21.27
2019-02-16T01:18:31.895Z,20.17
2019-02-16T01:21:02.628Z,20.63
2019-02-16T01:23:33.387Z,19.83
2019-02-16T01:26:04.068Z,21.70
2019-02-16T01:28:34.783Z,22.17
2019-02-16T01:31:05.625Z,22.57
2019-02-16T01:33:36.289Z,21.73
2019-02-16T01:36:06.999Z,21.43
2019-02-16T01:38:37.959Z,19.97
2019-02-16T01:41:08.692Z,20.47
2019-02-16T01:43:39.639Z,21.60
2019-02-16T01:46:10.300Z,20.40
2019-02-16T01:48:41.800Z,22.07
2019-02-16T01:51:12.508Z,23.63
2019-02-16T01:53:43.220Z,23.40
2019-02-16T01:56:13.940Z,25.07
2019-02-16T01:58:44.609Z,25.03
2019-02-16T02:01:15.692Z,25.90
2019-02-16T02:03:46.429Z,26.57
2019-02-16T02:06:17.098Z,27.87
2019-02-16T02:08:48.035Z,27.27
2019-02-16T02:11:19.290Z,26.20
2019-02-16T02:13:50.276Z,28.73
2019-02-16T02:16:20.963Z,27.23
2019-02-16T02:18:52.003Z,26.73
2019-02-16T02:21:22.805Z,26.83
2019-02-16T02:23:53.616Z,28.30
2019-02-16T02:26:24.315Z,27.23
2019-02-16T02:28:55.016Z,28.67
2019-02-16T02:31:25.700Z,28.23
2019-02-16T02:33:56.426Z,27.30
2019-02-16T02:36:28.018Z,29.37
2019-02-16T02:38:58.891Z,29.17
2019-02-16T02:41:29.601Z,27.67
2019-02-16T02:44:00.540Z,27.50
2019-02-16T02:46:31.253Z,27.07
2019-02-16T02:49:02.034Z,26.33
2019-02-16T02:51:32.994Z,25.87
2019-02-16T02:54:03.749Z,26.37
2019-02-16T02:56:34.498Z,26.83
2019-02-16T02:59:05.312Z,26.43
2019-02-16T03:01:36.230Z,26.03
2019-02-16T03:04:06.902Z,23.70
2019-02-16T03:06:37.807Z,25.83
2019-02-16T03:09:08.538Z,24.33
2019-02-16T03:11:39.267Z,25.60
2019-02-16T03:14:09.908Z,25.77
2019-02-16T03:16:40.701Z,25.13
2019-02-16T03:19:11.374Z,24.70
2019-02-16T03:21:43.052Z,23.63
2019-02-16T03:24:13.741Z,23.30
2019-02-16T03:27:14.929Z,22.97
2019-02-16T03:30:45.969Z,24.73
2019-02-16T03:33:48.447Z,21.40
2019-02-16T03:37:35.914Z,21.87
2019-02-16T03:40:07.334Z,21.83
2019-02-16T03:42:38.661Z,22.70
2019-02-16T03:45:10.094Z,21.97
2019-02-16T03:47:40.905Z,22.53
2019-02-16T03:50:11.638Z,21.80
2019-02-16T03:52:42.474Z,20.87
2019-02-16T03:55:13.321Z,22.37
2019-02-16T03:57:44.554Z,22.53
2019-02-16T04:00:15.394Z,23.87
2019-02-16T04:02:46.110Z,22.67
2019-02-16T04:05:16.911Z,22.77
2019-02-16T04:07:47.612Z,23.87
2019-02-16T04:10:18.287Z,22.87
2019-02-16T04:12:48.996Z,22.63
2019-02-16T04:15:19.703Z,22.07
2019-02-16T04:17:50.414Z,22.10
2019-02-16T04:20:21.059Z,20.90
2019-02-16T04:22:51.708Z,21.93
2019-02-16T04:25:22.404Z,21.40
2019-02-16T04:27:53.089Z,21.73
2019-02-16T04:30:23.755Z,20.33
2019-02-16T04:32:54.424Z,22.13
2019-02-16T04:35:25.127Z,20.73
2019-02-16T04:37:56.332Z,22.10
2019-02-16T04:40:27.200Z,19.83
2019-02-16T04:42:58.378Z,19.80
2019-02-16T04:45:29.866Z,18.97
2019-02-16T04:48:00.996Z,20.53
2019-02-16T04:50:31.770Z,19.20
2019-02-16T04:53:02.405Z,18.60
2019-02-16T04:55:33.083Z,19.47
2019-02-16T04:58:03.799Z,18.70
2019-02-16T05:00:34.872Z,19.33
2019-02-16T05:03:06.131Z,19.07
2019-02-16T05:05:36.864Z,18.27
2019-02-16T05:08:07.525Z,17.80
2019-02-16T05:10:38.276Z,19.50
2019-02-16T05:13:08.990Z,17.87
2019-02-16T05:15:41.577Z,17.83
2019-02-16T05:18:12.265Z,18.97
2019-02-16T05:20:42.937Z,18.60
2019-02-16T05:23:13.612Z,17.23
2019-02-16T05:25:44.228Z,17.97
2019-02-16T05:28:14.934Z,18.47
2019-02-16T05:30:45.706Z,47.17
2019-02-16T05:33:16.386Z,37.63
2019-02-16T05:35:47.065Z,28.83
2019-02-16T05:38:17.734Z,22.60
2019-02-16T05:40:48.404Z,22.50
2019-02-16T05:43:19.679Z,22.63
2019-02-16T05:45:52.681Z,172.67
2019-02-16T05:48:26.149Z,410.03
2019-02-16T05:50:59.559Z,472.97
2019-02-16T05:53:30.304Z,500.23
2019-02-16T05:56:00.991Z,346.30
2019-02-16T05:58:31.806Z,246.70
2019-02-16T06:01:02.515Z,356.00
2019-02-16T06:03:34.469Z,487.53
2019-02-16T06:06:05.131Z,436.40
2019-02-16T06:08:35.834Z,242.27
2019-02-16T06:11:06.511Z,338.27
2019-02-16T06:13:37.565Z,553.73
2019-02-16T06:16:09.508Z,533.80
2019-02-16T06:18:41.436Z,526.83
2019-02-16T06:21:12.180Z,493.07
2019-02-16T06:23:46.128Z,468.10
2019-02-16T06:26:16.814Z,246.67
2019-02-16T06:28:47.588Z,221.90
2019-02-16T06:31:18.316Z,98.37
2019-02-16T06:33:49.010Z,40.03
2019-02-16T06:36:33.174Z,38.67
2019-02-16T06:39:05.708Z,41.23
2019-02-16T06:41:43.385Z,54.30
2019-02-16T06:44:14.052Z,32.50
2019-02-16T06:46:47.679Z,33.93
2019-02-16T06:49:18.511Z,24.07
2019-02-16T06:51:49.158Z,19.50
2019-02-16T06:54:19.897Z,20.00
2019-02-16T06:57:21.861Z,20.53
2019-02-16T06:59:52.562Z,18.90
2019-02-16T07:02:24.513Z,18.17
2019-02-16T07:04:55.208Z,19.87
2019-02-16T07:07:28.637Z,18.50
2019-02-16T07:09:59.455Z,19.27
2019-02-16T07:12:30.470Z,19.23
2019-02-16T07:15:01.119Z,18.70
2019-02-16T07:18:10.113Z,18.27
2019-02-16T07:20:41.030Z,18.13
2019-02-16T07:23:12.430Z,17.90
2019-02-16T07:25:43.105Z,18.10
2019-02-16T07:28:14.641Z,18.00
2019-02-16T07:30:45.428Z,17.83
2019-02-16T07:33:16.146Z,18.20
2019-02-16T07:35:47.017Z,19.10
2019-02-16T07:38:17.687Z,16.97
2019-02-16T07:40:48.342Z,17.13
2019-02-16T07:43:40.097Z,17.43
2019-02-16T07:46:29.311Z,16.67
2019-02-16T07:49:11.474Z,16.60
2019-02-16T07:52:05.134Z,25.23
2019-02-16T07:54:59.282Z,55.10
2019-02-16T07:57:36.324Z,24.20
2019-02-16T08:00:25.922Z,59.73
2019-02-16T08:03:00.046Z,25.17
2019-02-16T08:05:50.110Z,22.90
2019-02-16T08:08:37.416Z,24.17
2019-02-16T08:11:27.216Z,18.63
2019-02-16T08:14:16.740Z,17.70
2019-02-16T08:16:53.232Z,15.03
2019-02-16T08:19:29.055Z,15.47
2019-02-16T08:22:09.231Z,15.07
2019-02-16T08:25:17.224Z,13.30
2019-02-16T08:28:06.950Z,13.87
2019-02-16T08:30:55.824Z,13.10
2019-02-16T08:33:54.799Z,12.50
2019-02-16T08:36:40.939Z,12.00
2019-02-16T08:39:34.967Z,11.17
2019-02-16T08:42:23.451Z,10.90
2019-02-16T08:44:59.241Z,9.67
2019-02-16T08:47:45.830Z,9.83
2019-02-16T08:50:38.700Z,9.77
2019-02-16T08:53:22.720Z,8.37
2019-02-16T08:56:00.640Z,6.83
2019-02-16T08:58:48.987Z,5.50
2019-02-16T09:01:40.426Z,5.23
2019-02-16T09:04:46.312Z,5.80
2019-02-16T09:07:42.406Z,5.17
2019-02-16T09:10:44.876Z,5.07
2019-02-16T09:13:49.671Z,4.93
2019-02-16T09:16:32.510Z,4.60
2019-02-16T09:19:36.340Z,4.17
2019-02-16T09:22:24.726Z,4.53
2019-02-16T09:25:17.888Z,4.70
2019-02-16T09:28:03.010Z,4.47
2019-02-16T09:31:02.787Z,4.10
2019-02-16T09:33:54.904Z,4.40
2019-02-16T09:36:41.771Z,4.17
2019-02-16T09:39:22.982Z,4.10
2019-02-16T09:42:02.321Z,3.80
2019-02-16T09:44:50.498Z,3.80
2019-02-16T09:47:45.085Z,4.00
2019-02-16T09:50:35.128Z,3.57
2019-02-16T09:53:33.598Z,3.90
2019-02-16T09:56:35.410Z,3.97
2019-02-16T09:59:31.255Z,4.27
2019-02-16T10:02:22.513Z,3.63
2019-02-16T10:05:06.810Z,3.50
2019-02-16T10:07:55.205Z,4.47
2019-02-16T10:10:35.822Z,3.70
2019-02-16T10:13:22.806Z,3.73
2019-02-16T10:16:00.868Z,3.77
2019-02-16T10:18:43.962Z,2.90
2019-02-16T10:21:28.886Z,3.23
2019-02-16T10:24:30.671Z,3.20
2019-02-16T10:27:26.025Z,3.17
2019-02-16T10:30:10.290Z,2.90
2019-02-16T10:33:05.956Z,3.40
2019-02-16T10:35:54.511Z,3.10
2019-02-16T10:38:51.147Z,3.20
2019-02-16T10:41:39.566Z,3.53
2019-02-16T10:44:28.552Z,3.57
2019-02-16T10:47:17.244Z,3.53
2019-02-16T10:49:58.782Z,3.43
2019-02-16T10:52:51.481Z,3.80
2019-02-16T10:55:46.317Z,3.70
2019-02-16T10:58:23.751Z,3.30
2019-02-16T11:01:12.164Z,3.30
2019-02-16T11:04:02.496Z,3.07
2019-02-16T11:07:07.410Z,3.03
2019-02-16T11:09:50.455Z,3.73
2019-02-16T11:12:35.465Z,3.77
2019-02-16T11:15:43.391Z,2.93
2019-02-16T11:18:25.980Z,3.17
2019-02-16T11:21:24.743Z,2.90
2019-02-16T11:24:10.198Z,3.40
2019-02-16T11:26:49.091Z,3.73
2019-02-16T11:29:31.472Z,2.93
2019-02-16T11:32:29.986Z,3.00
2019-02-16T11:35:19.489Z,3.00
2019-02-16T11:38:09.019Z,2.83
2019-02-16T11:41:08.897Z,2.93
2019-02-16T11:44:04.875Z,3.20
2019-02-16T11:46:51.011Z,3.00
2019-02-16T11:49:48.043Z,2.83
2019-02-16T11:52:37.764Z,2.50
2019-02-16T11:55:35.322Z,3.97
2019-02-16T11:58:25.399Z,5.73
2019-02-16T12:01:07.620Z,5.40
2019-02-16T12:03:59.689Z,4.00
2019-02-16T12:06:35.930Z,3.07
2019-02-16T12:09:27.182Z,2.90
2019-02-16T12:12:26.060Z,2.60
2019-02-16T12:15:15.286Z,2.67
2019-02-16T12:18:04.837Z,2.63
2019-02-16T12:21:09.748Z,2.67
2019-02-16T12:23:59.384Z,2.33
2019-02-16T12:26:48.623Z,2.40
2019-02-16T12:29:41.418Z,2.77
2019-02-16T12:32:31.561Z,2.60
2019-02-16T12:35:18.365Z,2.00
2019-02-16T12:37:57.484Z,2.57
2019-02-16T12:41:02.140Z,2.50
2019-02-16T12:44:04.009Z,3.30
2019-02-16T12:47:08.774Z,3.00
2019-02-16T12:49:52.167Z,2.37
2019-02-16T12:52:40.387Z,2.00
2019-02-16T12:55:36.111Z,2.40
2019-02-16T12:58:15.835Z,2.80
2019-02-16T13:01:05.387Z,2.90
2019-02-16T13:04:01.148Z,3.47
2019-02-16T13:06:57.417Z,2.70
2019-02-16T13:09:48.943Z,4.70
2019-02-16T13:12:25.805Z,3.37
2019-02-16T13:15:14.633Z,3.90
2019-02-16T13:18:10.590Z,2.70
2019-02-16T13:20:55.182Z,2.90
2019-02-16T13:23:50.410Z,2.47
2019-02-16T13:26:43.057Z,2.00
2019-02-16T13:29:41.444Z,3.03
2019-02-16T13:32:34.128Z,2.53
2019-02-16T13:35:37.609Z,2.80
2019-02-16T13:38:44.962Z,1.87
2019-02-16T13:41:27.771Z,2.90
2019-02-16T13:44:16.038Z,2.40
2019-02-16T13:47:07.800Z,2.00
2019-02-16T13:50:06.313Z,2.07
2019-02-16T13:52:55.463Z,1.87
2019-02-16T13:55:44.485Z,2.30
2019-02-16T13:58:23.845Z,2.17
2019-02-16T14:01:04.885Z,2.30
2019-02-16T14:03:41.880Z,2.43
2019-02-16T14:06:27.985Z,2.20
2019-02-16T14:09:08.836Z,2.23
2019-02-16T14:11:53.999Z,1.97
2019-02-16T14:14:33.292Z,1.93
2019-02-16T14:17:35.326Z,2.27
2019-02-16T14:20:07.241Z,2.30
2019-02-16T14:22:38.209Z,2.40
2019-02-16T14:25:12.050Z,3.00
2019-02-16T14:27:44.341Z,4.47
2019-02-16T14:30:15.027Z,4.50
2019-02-16T14:32:46.335Z,6.83
2019-02-16T14:35:17.010Z,5.67
2019-02-16T14:38:06.602Z,3.90
2019-02-16T14:40:37.826Z,2.80
2019-02-16T14:43:08.497Z,2.30
2019-02-16T14:45:41.601Z,2.83
2019-02-16T14:48:12.276Z,3.40
2019-02-16T14:50:43.106Z,2.40
2019-02-16T14:53:13.745Z,3.87
2019-02-16T14:55:52.384Z,2.50
2019-02-16T14:58:16.982Z,2.47
2019-02-16T15:00:47.894Z,4.27
2019-02-16T15:03:18.619Z,2.97
2019-02-16T15:05:49.265Z,2.57
2019-02-16T15:08:19.945Z,2.63
2019-02-16T15:10:49.951Z,3.03
2019-02-16T15:13:20.644Z,2.30
2019-02-16T15:15:51.274Z,2.10
2019-02-16T15:18:22.075Z,2.03
2019-02-16T15:20:52.695Z,2.03
2019-02-16T15:23:23.370Z,1.80
2019-02-16T15:26:00.842Z,1.83
2019-02-16T15:28:26.677Z,1.73
2019-02-16T15:30:57.334Z,1.50
2019-02-16T15:33:27.989Z,2.83
2019-02-16T15:35:58.699Z,2.57
2019-02-16T15:38:29.351Z,2.67
2019-02-16T15:41:00.001Z,2.57
2019-02-16T15:43:30.646Z,2.77
2019-02-16T15:46:01.304Z,1.73
2019-02-16T15:48:32.550Z,2.20
2019-02-16T15:51:03.186Z,2.03
2019-02-16T15:53:33.877Z,4.33
2019-02-16T15:56:10.534Z,3.10
2019-02-16T15:58:37.711Z,2.20
2019-02-16T16:01:08.402Z,2.83
2019-02-16T16:03:40.794Z,2.50
2019-02-16T16:06:11.549Z,2.57
2019-02-16T16:08:54.540Z,2.90
2019-02-16T16:11:47.663Z,2.40
2019-02-16T16:14:43.069Z,2.77
2019-02-16T16:17:23.542Z,2.40
2019-02-16T16:20:03.063Z,2.30
2019-02-16T16:22:58.825Z,2.83
2019-02-16T16:25:51.454Z,2.53
2019-02-16T16:28:41.015Z,2.30
2019-02-16T16:31:33.431Z,2.07
2019-02-16T16:34:28.928Z,2.00
2019-02-16T16:37:11.580Z,2.77
2019-02-16T16:40:02.400Z,2.53
2019-02-16T16:42:58.833Z,2.67
2019-02-16T16:45:54.753Z,2.20
2019-02-16T16:48:54.019Z,3.00
2019-02-16T16:51:48.393Z,3.20
2019-02-16T16:54:29.446Z,2.70
2019-02-16T16:57:13.115Z,2.83
2019-02-16T16:59:59.913Z,2.67
2019-02-16T17:02:38.636Z,2.87
2019-02-16T17:05:27.506Z,2.90
2019-02-16T17:08:23.162Z,2.67
2019-02-16T17:11:30.435Z,2.77
2019-02-16T17:14:20.089Z,2.83
2019-02-16T17:17:08.532Z,2.97
2019-02-16T17:19:45.929Z,2.50
2019-02-16T17:22:44.506Z,3.13
2019-02-16T17:25:23.175Z,3.33
2019-02-16T17:28:07.039Z,3.37
2019-02-16T17:30:56.888Z,3.80
2019-02-16T17:33:42.048Z,3.77
2019-02-16T17:36:38.299Z,4.20
2019-02-16T17:39:19.809Z,2.87
2019-02-16T17:42:13.292Z,3.40
2019-02-16T17:45:18.012Z,3.20
2019-02-16T17:48:13.314Z,3.07
2019-02-16T17:50:54.933Z,2.70
2019-02-16T17:53:44.435Z,3.07
2019-02-16T17:56:31.082Z,2.93
2019-02-16T17:59:10.913Z,2.80
2019-02-16T18:02:00.780Z,3.30
2019-02-16T18:04:43.737Z,3.43
2019-02-16T18:07:30.372Z,3.03
2019-02-16T18:10:28.907Z,2.67
2019-02-16T18:13:09.342Z,2.63
2019-02-16T18:15:51.195Z,2.80
2019-02-16T18:18:43.637Z,2.90
2019-02-16T18:21:19.510Z,2.80
2019-02-16T18:24:18.755Z,2.80
2019-02-16T18:27:21.895Z,2.90
2019-02-16T18:30:11.936Z,2.60
2019-02-16T18:32:55.483Z,3.03
2019-02-16T18:36:04.535Z,3.03
2019-02-16T18:38:42.724Z,3.00
2019-02-16T18:41:26.115Z,2.47
2019-02-16T18:44:13.043Z,2.90
2019-02-16T18:46:53.250Z,2.93
2019-02-16T18:49:42.666Z,3.70
2019-02-16T18:52:42.919Z,3.10
2019-02-16T18:55:35.870Z,3.20
2019-02-16T18:58:34.963Z,3.30
2019-02-16T19:01:20.439Z,3.00
2019-02-16T19:04:26.087Z,3.33
2019-02-16T19:07:14.759Z,3.23
2019-02-16T19:10:07.645Z,2.97
2019-02-16T19:13:12.878Z,3.50
2019-02-16T19:16:16.254Z,3.00
2019-02-16T19:19:15.958Z,4.47
2019-02-16T19:22:03.716Z,7.57
2019-02-16T19:24:44.487Z,5.17
2019-02-16T19:27:29.927Z,4.23
2019-02-16T19:30:17.731Z,3.73
2019-02-16T19:33:19.615Z,3.63
2019-02-16T19:36:18.337Z,3.70
2019-02-16T19:39:16.966Z,3.57
2019-02-16T19:42:05.297Z,3.90
2019-02-16T19:44:47.155Z,4.20
2019-02-16T19:47:44.157Z,3.53
2019-02-16T19:50:42.778Z,3.30
2019-02-16T19:53:44.629Z,3.30
2019-02-16T19:56:28.798Z,3.70
2019-02-16T19:59:21.599Z,3.70
2019-02-16T20:02:11.171Z,4.23
2019-02-16T20:04:59.639Z,4.37
2019-02-16T20:07:47.999Z,4.70
2019-02-16T20:10:28.576Z,4.63
2019-02-16T20:13:21.764Z,5.10
2019-02-16T20:16:09.914Z,5.47
2019-02-16T20:18:56.887Z,4.87
2019-02-16T20:21:46.400Z,4.80
2019-02-16T20:24:33.845Z,5.17
2019-02-16T20:27:37.395Z,7.00
2019-02-16T20:30:17.150Z,7.17
2019-02-16T20:33:22.105Z,6.23
2019-02-16T20:36:20.999Z,6.20
2019-02-16T20:39:16.796Z,15.37
2019-02-16T20:42:09.124Z,6.23
2019-02-16T20:44:57.744Z,4.73
2019-02-16T20:47:45.914Z,4.83
2019-02-16T20:50:26.901Z,9.17
2019-02-16T20:53:28.791Z,18.97
2019-02-16T20:56:15.235Z,17.73
2019-02-16T20:58:53.490Z,15.47
2019-02-16T21:01:34.880Z,13.10
2019-02-16T21:04:33.543Z,12.53
2019-02-16T21:07:23.626Z,30.03
2019-02-16T21:10:06.959Z,22.60
2019-02-16T21:12:53.441Z,27.07
2019-02-16T21:15:33.086Z,8.70
2019-02-16T21:18:21.292Z,6.10
2019-02-16T21:21:08.576Z,5.23
2019-02-16T21:23:56.716Z,5.93
2019-02-16T21:26:39.519Z,4.87
2019-02-16T21:29:26.643Z,5.10
2019-02-16T21:32:13.232Z,4.20
2019-02-16T21:35:02.001Z,4.90
2019-02-16T21:37:50.663Z,5.13
2019-02-16T21:40:38.895Z,4.67
2019-02-16T21:43:31.530Z,6.10
2019-02-16T21:46:27.950Z,5.30
2019-02-16T21:49:21.240Z,5.00
2019-02-16T21:52:22.983Z,5.73
2019-02-16T21:55:11.252Z,5.53
2019-02-16T21:58:14.190Z,5.07
2019-02-16T22:00:59.055Z,5.70
2019-02-16T22:04:04.257Z,5.83
2019-02-16T22:06:54.091Z,5.90
2019-02-16T22:09:39.143Z,5.77
2019-02-16T22:12:28.792Z,5.50
2019-02-16T22:15:02.021Z,5.77
2019-02-16T22:17:31.848Z,5.10
2019-02-16T22:20:03.003Z,5.57
2019-02-16T22:22:33.685Z,5.77
2019-02-16T22:25:05.187Z,5.77
2019-02-16T22:27:36.355Z,5.27
2019-02-16T22:30:10.018Z,5.50
2019-02-16T22:32:41.223Z,5.20
2019-02-16T22:35:11.977Z,5.70
2019-02-16T22:37:42.703Z,5.43
2019-02-16T22:40:13.435Z,5.97
2019-02-16T22:42:44.451Z,5.70
2019-02-16T22:45:15.097Z,5.27
2019-02-16T22:47:46.800Z,6.07
2019-02-16T22:50:17.571Z,5.43
2019-02-16T22:52:48.295Z,5.50
2019-02-16T22:55:19.018Z,5.00
2019-02-16T22:57:49.644Z,5.57
2019-02-16T23:00:38.776Z,5.47
2019-02-16T23:03:09.940Z,5.23
2019-02-16T23:05:42.735Z,5.80
2019-02-16T23:08:13.790Z,4.97
2019-02-16T23:10:44.504Z,5.50
2019-02-16T23:13:15.326Z,5.30
2019-02-16T23:15:46.088Z,4.90
2019-02-16T23:18:16.948Z,5.63
2019-02-16T23:20:47.920Z,4.87
2019-02-16T23:23:18.796Z,5.40
2019-02-16T23:25:49.489Z,5.30
2019-02-16T23:28:20.131Z,5.83
2019-02-16T23:30:50.790Z,5.60
2019-02-16T23:33:21.481Z,5.60
2019-02-16T23:35:52.146Z,5.40
2019-02-16T23:38:22.830Z,5.60
2019-02-16T23:40:53.469Z,5.90
2019-02-16T23:43:24.152Z,5.30
2019-02-16T23:45:54.936Z,5.40
2019-02-16T23:48:25.649Z,5.97
2019-02-16T23:50:56.314Z,5.73
2019-02-16T23:53:26.990Z,5.67
2019-02-16T23:55:57.620Z,5.43
2019-02-16T23:58:28.401Z,5.40
